createdAt,value
2018-10-07T00:02:45.944Z,9.63
2018-10-07T00:06:08.675Z,10.33
2018-10-07T00:09:31.497Z,7.47
2018-10-07T00:12:56.335Z,5.83
2018-10-07T00:16:19.104Z,9.80
2018-10-07T00:19:44.059Z,7.73
2018-10-07T00:23:07.077Z,8.00
2018-10-07T00:26:29.982Z,7.17
2018-10-07T00:29:53.657Z,12.47
2018-10-07T00:33:16.500Z,8.03
2018-10-07T00:36:43.806Z,6.40
2018-10-07T00:40:06.554Z,7.23
2018-10-07T00:43:29.540Z,7.27
2018-10-07T00:46:52.272Z,8.03
2018-10-07T00:50:15.134Z,6.70
2018-10-07T00:53:38.197Z,6.50
2018-10-07T00:57:01.055Z,7.47
2018-10-07T01:00:23.799Z,7.20
2018-10-07T01:03:46.715Z,6.90
2018-10-07T01:07:09.696Z,10.53
2018-10-07T01:10:33.350Z,8.77
2018-10-07T01:13:56.016Z,9.20
2018-10-07T01:17:18.612Z,7.33
2018-10-07T01:20:41.276Z,8.57
2018-10-07T01:24:03.861Z,7.33
2018-10-07T01:27:26.609Z,7.00
2018-10-07T01:30:49.256Z,7.50
2018-10-07T01:34:11.903Z,7.27
2018-10-07T01:37:34.811Z,9.33
2018-10-07T01:40:57.449Z,10.43
2018-10-07T01:44:20.403Z,9.63
2018-10-07T01:47:43.143Z,7.87
2018-10-07T01:51:06.160Z,10.17
2018-10-07T01:54:28.887Z,11.60
2018-10-07T01:57:51.921Z,12.70
2018-10-07T02:01:18.858Z,8.83
2018-10-07T02:04:41.719Z,9.53
2018-10-07T02:08:10.400Z,9.20
2018-10-07T02:11:32.852Z,9.67
2018-10-07T02:14:55.393Z,11.70
2018-10-07T02:18:18.159Z,15.03
2018-10-07T02:21:40.646Z,11.70
2018-10-07T02:25:03.212Z,11.37
2018-10-07T02:28:25.689Z,19.30
2018-10-07T02:31:48.873Z,15.17
2018-10-07T02:35:11.758Z,12.17
2018-10-07T02:38:34.399Z,15.43
2018-10-07T02:41:57.274Z,16.27
2018-10-07T02:45:21.480Z,19.10
2018-10-07T02:48:44.229Z,12.87
2018-10-07T02:52:06.786Z,14.03
2018-10-07T02:55:30.969Z,13.57
2018-10-07T02:58:53.543Z,14.63
2018-10-07T03:02:16.228Z,15.00
2018-10-07T03:05:38.937Z,17.37
2018-10-07T03:09:01.986Z,12.93
2018-10-07T03:12:29.388Z,13.63
2018-10-07T03:15:53.352Z,14.23
2018-10-07T03:19:16.059Z,17.20
2018-10-07T03:22:38.739Z,16.37
2018-10-07T03:26:03.922Z,12.60
2018-10-07T03:29:26.802Z,18.97
2018-10-07T03:32:49.307Z,14.00
2018-10-07T03:36:12.242Z,14.10
2018-10-07T03:39:36.519Z,16.23
2018-10-07T03:42:59.283Z,13.93
2018-10-07T03:46:21.735Z,16.33
2018-10-07T03:49:45.318Z,19.80
2018-10-07T03:56:46.034Z,17.30
2018-10-07T04:00:08.973Z,15.90
2018-10-07T04:03:31.752Z,20.97
2018-10-07T04:06:54.417Z,15.17
2018-10-07T04:10:17.147Z,14.80
2018-10-07T04:13:40.493Z,20.00
2018-10-07T04:17:03.251Z,17.33
2018-10-07T04:20:25.936Z,15.37
2018-10-07T04:23:49.270Z,15.37
2018-10-07T04:27:12.027Z,21.23
2018-10-07T04:30:34.468Z,17.07
2018-10-07T04:33:57.167Z,16.00
2018-10-07T04:37:20.152Z,15.83
2018-10-07T04:40:43.209Z,23.27
2018-10-07T04:44:05.711Z,21.13
2018-10-07T04:47:28.483Z,17.17
2018-10-07T04:50:51.427Z,16.47
2018-10-07T04:54:14.070Z,15.97
2018-10-07T04:57:36.802Z,16.40
2018-10-07T05:00:59.698Z,18.67
2018-10-07T05:04:22.318Z,17.90
2018-10-07T05:07:45.821Z,19.10
2018-10-07T05:11:08.628Z,20.30
2018-10-07T05:14:31.382Z,21.27
2018-10-07T05:17:54.292Z,19.20
2018-10-07T05:21:17.057Z,18.37
2018-10-07T05:24:39.680Z,25.23
2018-10-07T05:28:02.469Z,26.87
2018-10-07T05:31:24.931Z,21.67
2018-10-07T05:34:47.909Z,21.90
2018-10-07T05:38:16.080Z,21.70
2018-10-07T05:41:39.764Z,18.90
2018-10-07T05:45:02.429Z,19.70
2018-10-07T05:48:25.187Z,25.50
2018-10-07T05:51:48.075Z,18.87
2018-10-07T05:55:10.865Z,21.33
2018-10-07T05:58:34.571Z,20.50
2018-10-07T06:02:00.734Z,27.27
2018-10-07T06:05:23.115Z,25.57
2018-10-07T06:08:45.712Z,27.90
2018-10-07T06:12:08.265Z,24.00
2018-10-07T06:15:33.253Z,20.37
2018-10-07T06:18:55.921Z,17.20
2018-10-07T06:22:20.807Z,15.60
2018-10-07T06:25:43.619Z,15.83
2018-10-07T06:29:06.076Z,14.63
2018-10-07T06:32:28.637Z,13.70
2018-10-07T06:35:51.210Z,15.03
2018-10-07T06:39:14.027Z,15.93
2018-10-07T06:42:36.937Z,18.00
2018-10-07T06:45:59.623Z,16.97
2018-10-07T06:49:22.393Z,16.07
2018-10-07T06:52:44.867Z,21.53
2018-10-07T06:56:07.378Z,24.37
2018-10-07T06:59:30.007Z,28.87
2018-10-07T07:02:52.409Z,24.97
2018-10-07T07:06:15.033Z,20.13
2018-10-07T07:09:37.810Z,17.47
2018-10-07T07:13:00.441Z,16.37
2018-10-07T07:16:23.021Z,17.60
2018-10-07T07:19:45.694Z,16.73
2018-10-07T07:23:08.385Z,18.30
2018-10-07T07:26:31.149Z,12.67
2018-10-07T07:29:53.715Z,13.73
2018-10-07T07:33:17.111Z,16.20
2018-10-07T07:36:41.160Z,15.53
2018-10-07T07:40:04.268Z,15.80
2018-10-07T07:43:28.381Z,14.43
2018-10-07T07:46:51.269Z,15.33
2018-10-07T07:50:13.928Z,19.07
2018-10-07T07:53:36.683Z,20.27
2018-10-07T07:56:59.270Z,17.57
2018-10-07T08:00:22.108Z,18.47
2018-10-07T08:03:44.860Z,22.70
2018-10-07T08:07:07.609Z,19.30
2018-10-07T08:10:30.162Z,23.67
2018-10-07T08:13:52.713Z,20.40
2018-10-07T08:17:15.420Z,19.67
2018-10-07T08:20:37.988Z,23.30
2018-10-07T08:24:00.342Z,17.27
2018-10-07T08:27:23.788Z,20.87
2018-10-07T08:30:46.564Z,20.93
2018-10-07T08:34:09.053Z,24.27
2018-10-07T08:37:31.600Z,21.80
2018-10-07T08:40:54.269Z,22.90
2018-10-07T08:44:16.886Z,21.37
2018-10-07T08:47:39.618Z,23.33
2018-10-07T08:51:02.355Z,25.20
2018-10-07T08:54:24.904Z,26.77
2018-10-07T08:57:47.475Z,32.40
2018-10-07T09:01:10.173Z,35.07
2018-10-07T09:04:32.925Z,32.63
2018-10-07T09:07:55.538Z,31.40
2018-10-07T09:11:18.270Z,29.63
2018-10-07T09:14:40.974Z,33.80
2018-10-07T09:18:03.641Z,32.63
2018-10-07T09:21:26.221Z,32.70
2018-10-07T09:24:48.766Z,32.50
2018-10-07T09:28:11.451Z,40.97
2018-10-07T09:31:34.222Z,36.60
2018-10-07T09:34:56.789Z,39.83
2018-10-07T09:38:19.739Z,44.10
2018-10-07T09:41:42.319Z,42.10
2018-10-07T09:45:05.072Z,40.27
2018-10-07T09:48:27.642Z,42.93
2018-10-07T09:51:50.202Z,36.73
2018-10-07T09:55:12.746Z,39.67
2018-10-07T09:58:35.366Z,40.83
2018-10-07T10:01:57.902Z,41.57
2018-10-07T10:05:20.420Z,41.27
2018-10-07T10:08:43.151Z,40.40
2018-10-07T10:13:02.417Z,38.83
2018-10-07T10:17:29.057Z,40.37
2018-10-07T10:20:59.119Z,37.13
2018-10-07T10:32:10.294Z,39.87
2018-10-07T10:36:11.081Z,36.53
2018-10-07T10:39:45.926Z,31.65
2018-10-07T10:44:22.409Z,33.00
2018-10-07T10:47:46.341Z,28.10
2018-10-07T10:52:21.049Z,27.13
2018-10-07T10:56:19.076Z,22.00
2018-10-07T10:59:50.006Z,20.03
2018-10-07T11:03:24.135Z,17.37
2018-10-07T11:31:27.061Z,15.30
2018-10-07T11:37:30.759Z,11.60
2018-10-07T11:41:02.828Z,12.27
2018-10-07T11:44:55.253Z,16.00
2018-10-07T11:48:32.058Z,12.80
2018-10-07T11:52:16.459Z,16.00
2018-10-07T11:55:39.170Z,17.77
2018-10-07T11:59:02.556Z,28.33
2018-10-07T12:02:26.519Z,20.23
2018-10-07T12:05:49.270Z,23.60
2018-10-07T12:09:13.787Z,20.77
2018-10-07T12:12:38.736Z,18.07
2018-10-07T12:16:02.078Z,11.97
2018-10-07T12:19:24.921Z,9.97
2018-10-07T12:22:48.274Z,9.87
2018-10-07T12:26:10.734Z,9.40
2018-10-07T12:29:33.162Z,9.37
2018-10-07T12:32:55.640Z,4.07
2018-10-07T12:36:18.321Z,4.10
2018-10-07T12:39:40.810Z,4.47
2018-10-07T12:43:04.565Z,4.73
2018-10-07T12:46:27.841Z,4.73
2018-10-07T12:49:50.532Z,5.33
2018-10-07T12:53:13.975Z,7.03
2018-10-07T12:56:36.581Z,4.30
2018-10-07T12:59:59.559Z,4.50
2018-10-07T13:03:22.741Z,5.17
2018-10-07T13:06:45.271Z,5.47
2018-10-07T13:10:07.745Z,4.53
2018-10-07T13:13:30.239Z,4.90
2018-10-07T13:16:53.925Z,4.67
2018-10-07T13:20:16.415Z,4.70
2018-10-07T13:23:38.953Z,5.23
2018-10-07T13:27:01.450Z,6.90
2018-10-07T13:30:23.906Z,6.90
2018-10-07T13:33:46.411Z,6.10
2018-10-07T13:37:08.878Z,4.80
2018-10-07T13:40:32.321Z,5.33
2018-10-07T13:43:55.265Z,4.30
2018-10-07T13:47:17.652Z,4.37
2018-10-07T13:50:40.166Z,4.43
2018-10-07T13:54:02.607Z,5.63
2018-10-07T13:57:24.977Z,6.37
2018-10-07T14:00:47.414Z,4.97
2018-10-07T14:04:09.950Z,5.37
2018-10-07T14:07:32.615Z,7.50
2018-10-07T14:10:55.097Z,5.00
2018-10-07T14:14:17.535Z,5.70
2018-10-07T14:17:40.055Z,5.42
2018-10-07T14:21:02.536Z,5.90
2018-10-07T14:24:25.195Z,4.07
2018-10-07T14:27:47.903Z,3.20
2018-10-07T14:31:11.395Z,5.53
2018-10-07T14:34:34.856Z,4.47
2018-10-07T14:37:57.291Z,4.83
2018-10-07T14:41:19.810Z,3.47
2018-10-07T14:44:44.218Z,3.87
2018-10-07T14:48:07.358Z,3.03
2018-10-07T14:51:29.927Z,3.07
2018-10-07T14:54:52.607Z,2.40
2018-10-07T14:58:15.241Z,3.33
2018-10-07T15:01:38.876Z,4.63
2018-10-07T15:05:01.598Z,2.10
2018-10-07T15:08:24.175Z,5.10
2018-10-07T15:11:46.662Z,2.33
2018-10-07T15:15:09.109Z,2.73
2018-10-07T15:18:31.575Z,3.67
2018-10-07T15:21:54.098Z,3.90
2018-10-07T15:25:16.653Z,3.07
2018-10-07T15:28:39.121Z,2.50
2018-10-07T15:32:01.833Z,3.77
2018-10-07T15:35:24.452Z,3.37
2018-10-07T15:38:46.943Z,3.73
2018-10-07T15:42:09.362Z,4.37
2018-10-07T15:48:59.583Z,2.27
2018-10-07T15:52:22.137Z,1.70
2018-10-07T15:55:44.666Z,2.27
2018-10-07T15:59:07.334Z,1.70
2018-10-07T16:02:30.880Z,2.40
2018-10-07T16:05:53.504Z,3.47
2018-10-07T16:09:15.930Z,1.93
2018-10-07T16:12:38.522Z,2.07
2018-10-07T16:16:01.153Z,2.83
2018-10-07T16:19:23.703Z,2.70
2018-10-07T16:22:46.231Z,1.77
2018-10-07T16:26:08.781Z,1.40
2018-10-07T16:29:32.030Z,2.00
2018-10-07T16:32:54.800Z,1.80
2018-10-07T16:36:17.343Z,3.67
2018-10-07T16:39:39.952Z,3.13
2018-10-07T16:43:02.526Z,1.87
2018-10-07T16:46:25.071Z,2.07
2018-10-07T16:49:47.574Z,1.57
2018-10-07T16:53:10.228Z,3.57
2018-10-07T16:56:32.876Z,11.57
2018-10-07T16:59:55.441Z,7.83
2018-10-07T17:03:18.076Z,3.03
2018-10-07T17:06:40.884Z,2.53
2018-10-07T17:10:03.717Z,2.40
2018-10-07T17:13:26.646Z,3.13
2018-10-07T17:16:49.310Z,2.13
2018-10-07T17:20:11.834Z,2.83
2018-10-07T17:23:34.530Z,3.17
2018-10-07T17:26:57.263Z,3.17
2018-10-07T17:30:19.765Z,3.20
2018-10-07T17:33:42.238Z,2.97
2018-10-07T17:37:04.588Z,3.10
2018-10-07T17:40:27.222Z,4.00
2018-10-07T17:43:49.857Z,2.97
2018-10-07T17:47:12.451Z,2.30
2018-10-07T17:50:35.011Z,4.87
2018-10-07T17:53:57.433Z,4.70
2018-10-07T17:57:20.047Z,1.57
2018-10-07T18:00:42.548Z,4.10
2018-10-07T18:04:05.042Z,1.20
2018-10-07T18:12:10.139Z,2.77
2018-10-07T18:15:32.626Z,3.30
2018-10-07T18:18:55.246Z,1.60
2018-10-07T18:22:17.778Z,1.53
2018-10-07T18:25:40.401Z,2.07
2018-10-07T18:29:03.079Z,2.57
2018-10-07T18:32:25.558Z,2.90
2018-10-07T18:35:48.144Z,2.23
2018-10-07T18:39:10.758Z,2.07
2018-10-07T18:42:33.513Z,2.43
2018-10-07T18:45:56.359Z,1.80
2018-10-07T18:49:19.213Z,2.77
2018-10-07T18:52:41.844Z,2.80
2018-10-07T18:56:04.483Z,2.90
2018-10-07T18:59:27.032Z,3.33
2018-10-07T19:02:49.712Z,3.17
2018-10-07T19:06:12.247Z,2.80
2018-10-07T19:09:34.813Z,2.23
2018-10-07T19:12:57.344Z,2.17
2018-10-07T19:16:19.805Z,1.60
2018-10-07T19:19:43.301Z,1.57
2018-10-07T19:23:06.029Z,1.53
2018-10-07T19:26:28.610Z,1.60
2018-10-07T19:29:51.492Z,2.53
2018-10-07T19:33:14.119Z,1.77
2018-10-07T19:36:36.572Z,1.70
2018-10-07T19:39:59.170Z,2.37
2018-10-07T19:43:22.281Z,2.53
2018-10-07T19:46:44.811Z,1.40
2018-10-07T19:50:07.367Z,2.70
2018-10-07T19:53:30.170Z,2.33
2018-10-07T19:56:54.046Z,1.53
2018-10-07T20:00:16.741Z,1.90
2018-10-07T20:03:39.285Z,2.43
2018-10-07T20:07:01.656Z,1.60
2018-10-07T20:10:24.189Z,2.40
2018-10-07T20:13:47.071Z,2.50
2018-10-07T20:17:09.745Z,1.70
2018-10-07T20:20:32.438Z,3.53
2018-10-07T20:23:55.139Z,2.00
2018-10-07T20:27:17.835Z,2.23
2018-10-07T20:30:40.329Z,3.33
2018-10-07T20:34:03.054Z,2.33
2018-10-07T20:37:26.051Z,2.40
2018-10-07T20:40:48.872Z,2.40
2018-10-07T20:44:11.357Z,2.30
2018-10-07T20:47:34.188Z,3.63
2018-10-07T20:50:56.922Z,2.47
2018-10-07T20:54:20.702Z,3.93
2018-10-07T20:57:43.789Z,2.90
2018-10-07T21:01:06.229Z,3.27
2018-10-07T21:04:28.854Z,4.43
2018-10-07T21:07:51.375Z,5.43
2018-10-07T21:11:13.880Z,5.13
2018-10-07T21:14:36.399Z,3.37
2018-10-07T21:17:59.011Z,3.10
2018-10-07T21:21:21.476Z,5.63
2018-10-07T21:24:44.024Z,4.83
2018-10-07T21:28:06.646Z,4.87
2018-10-07T21:31:29.248Z,4.33
2018-10-07T21:34:51.711Z,2.87
2018-10-07T21:38:14.100Z,3.30
2018-10-07T21:41:36.623Z,4.43
2018-10-07T21:44:59.115Z,3.60
2018-10-07T21:48:21.476Z,2.93
2018-10-07T21:51:43.870Z,4.13
2018-10-07T21:55:06.598Z,4.93
2018-10-07T21:58:29.111Z,4.13
2018-10-07T22:01:51.560Z,3.87
2018-10-07T22:05:14.199Z,3.60
2018-10-07T22:08:36.840Z,3.40
2018-10-07T22:11:59.325Z,4.53
2018-10-07T22:15:22.066Z,2.80
2018-10-07T22:18:44.603Z,3.13
2018-10-07T22:22:07.186Z,3.87
2018-10-07T22:25:29.670Z,2.70
2018-10-07T22:28:52.486Z,5.30
2018-10-07T22:32:15.117Z,2.60
2018-10-07T22:35:37.861Z,7.37
2018-10-07T22:39:00.729Z,4.03
2018-10-07T22:42:23.320Z,3.73
2018-10-07T22:45:46.116Z,4.23
2018-10-07T22:49:08.721Z,4.30
2018-10-07T22:52:31.451Z,3.93
2018-10-07T22:55:53.982Z,4.90
2018-10-07T22:59:16.704Z,3.27
2018-10-07T23:02:39.161Z,3.50
2018-10-07T23:06:01.552Z,3.23
2018-10-07T23:09:24.098Z,4.07
2018-10-07T23:12:46.529Z,3.70
2018-10-07T23:16:09.065Z,5.90
2018-10-07T23:19:31.566Z,5.87
2018-10-07T23:22:54.061Z,3.40
2018-10-07T23:26:16.553Z,3.30
2018-10-07T23:29:39.214Z,2.80
2018-10-07T23:33:01.672Z,6.13
2018-10-07T23:36:24.138Z,3.33
2018-10-07T23:39:46.695Z,3.20
2018-10-07T23:43:09.388Z,4.37
2018-10-07T23:46:31.951Z,4.23
2018-10-07T23:49:54.422Z,4.13
2018-10-07T23:53:17.040Z,5.27
2018-10-07T23:56:39.594Z,7.17
